sensor_id;sensor_type;location;lat;lon;timestamp;pressure;altitude;pressure_sealevel;temperature;humidity
74798;BME280;63326;45.088;7.658;2023-12-20T00:00:26;98762.59;;;0.86;100.00
74798;BME280;63326;45.088;7.658;2023-12-20T00:02:53;98784.56;;;0.86;100.00
74798;BME280;63326;45.088;7.658;2023-12-20T00:05:19;98772.44;;;0.72;100.00
74798;BME280;63326;45.088;7.658;2023-12-20T00:07:46;98792.63;;;0.85;100.00
74798;BME280;63326;45.088;7.658;2023-12-20T00:10:13;98822.66;;;0.95;100.00
74798;BME280;63326;45.088;7.658;2023-12-20T00:12:40;98738.28;;;0.49;100.00
74798;BME280;63326;45.088;7.658;2023-12-20T00:15:07;98765.25;;;0.63;100.00
74798;BME280;63326;45.088;7.658;2023-12-20T00:17:34;98808.72;;;0.82;100.00
74798;BME280;63326;45.088;7.658;2023-12-20T00:20:01;98760.50;;;0.46;100.00
74798;BME280;63326;45.088;7.658;2023-12-20T00:22:28;98730.97;;;0.41;100.00
74798;BME280;63326;45.088;7.658;2023-12-20T00:24:55;98743.59;;;0.37;100.00
74798;BME280;63326;45.088;7.658;2023-12-20T00:27:21;98724.63;;;0.21;100.00
74798;BME280;63326;45.088;7.658;2023-12-20T00:29:48;98749.59;;;0.28;100.00
74798;BME280;63326;45.088;7.658;2023-12-20T00:32:16;98668.13;;;-0.32;100.00
74798;BME280;63326;45.088;7.658;2023-12-20T00:34:43;98717.50;;;0.33;100.00
74798;BME280;63326;45.088;7.658;2023-12-20T00:37:10;98714.22;;;0.74;100.00
74798;BME280;63326;45.088;7.658;2023-12-20T00:39:37;98746.84;;;0.84;100.00
74798;BME280;63326;45.088;7.658;2023-12-20T00:42:04;98732.13;;;0.59;100.00
74798;BME280;63326;45.088;7.658;2023-12-20T00:44:30;98745.22;;;0.61;100.00
74798;BME280;63326;45.088;7.658;2023-12-20T00:46:57;98713.19;;;0.43;100.00
74798;BME280;63326;45.088;7.658;2023-12-20T00:49:24;98685.25;;;0.18;100.00
74798;BME280;63326;45.088;7.658;2023-12-20T00:51:50;98732.53;;;0.43;100.00
74798;BME280;63326;45.088;7.658;2023-12-20T00:54:19;98751.50;;;0.49;100.00
74798;BME280;63326;45.088;7.658;2023-12-20T00:56:45;98716.22;;;0.27;100.00
74798;BME280;63326;45.088;7.658;2023-12-20T00:59:12;98626.06;;;0.21;100.00
74798;BME280;63326;45.088;7.658;2023-12-20T01:01:38;98693.78;;;0.76;100.00
74798;BME280;63326;45.088;7.658;2023-12-20T01:04:05;98729.44;;;0.70;100.00
74798;BME280;63326;45.088;7.658;2023-12-20T01:06:32;98670.84;;;0.22;100.00
74798;BME280;63326;45.088;7.658;2023-12-20T01:08:59;98678.56;;;0.14;100.00
74798;BME280;63326;45.088;7.658;2023-12-20T01:11:25;98665.03;;;-0.15;100.00
74798;BME280;63326;45.088;7.658;2023-12-20T01:13:52;98703.03;;;0.05;100.00
74798;BME280;63326;45.088;7.658;2023-12-20T01:16:18;98642.84;;;-0.35;100.00
74798;BME280;63326;45.088;7.658;2023-12-20T01:18:45;98730.03;;;-0.03;100.00
74798;BME280;63326;45.088;7.658;2023-12-20T01:21:12;98673.16;;;-0.29;100.00
74798;BME280;63326;45.088;7.658;2023-12-20T01:23:39;98673.03;;;-0.39;100.00
74798;BME280;63326;45.088;7.658;2023-12-20T01:26:05;98713.13;;;-0.00;100.00
74798;BME280;63326;45.088;7.658;2023-12-20T01:28:32;98700.28;;;-0.05;100.00
74798;BME280;63326;45.088;7.658;2023-12-20T01:30:59;98666.00;;;-0.27;100.00
74798;BME280;63326;45.088;7.658;2023-12-20T01:33:25;98664.66;;;-0.33;100.00
74798;BME280;63326;45.088;7.658;2023-12-20T01:35:52;98680.97;;;-0.05;100.00
74798;BME280;63326;45.088;7.658;2023-12-20T01:38:19;98601.34;;;-0.44;100.00
74798;BME280;63326;45.088;7.658;2023-12-20T01:40:46;98661.75;;;-0.19;100.00
74798;BME280;63326;45.088;7.658;2023-12-20T01:43:13;98663.81;;;-0.11;100.00
74798;BME280;63326;45.088;7.658;2023-12-20T01:45:40;98660.59;;;-0.15;100.00
74798;BME280;63326;45.088;7.658;2023-12-20T01:48:08;98672.31;;;0.04;100.00
74798;BME280;63326;45.088;7.658;2023-12-20T01:50:36;98691.41;;;-0.04;100.00
74798;BME280;63326;45.088;7.658;2023-12-20T01:53:05;98727.03;;;0.24;100.00
74798;BME280;63326;45.088;7.658;2023-12-20T01:55:35;98708.78;;;0.10;100.00
74798;BME280;63326;45.088;7.658;2023-12-20T01:58:03;98711.31;;;0.11;100.00
74798;BME280;63326;45.088;7.658;2023-12-20T02:00:31;98705.19;;;0.11;100.00
74798;BME280;63326;45.088;7.658;2023-12-20T02:03:00;98698.09;;;0.11;100.00
74798;BME280;63326;45.088;7.658;2023-12-20T02:05:29;98699.06;;;0.22;100.00
74798;BME280;63326;45.088;7.658;2023-12-20T02:07:56;98679.84;;;0.20;100.00
74798;BME280;63326;45.088;7.658;2023-12-20T02:10:24;98679.00;;;0.19;100.00
74798;BME280;63326;45.088;7.658;2023-12-20T02:12:50;98630.94;;;-0.07;100.00
74798;BME280;63326;45.088;7.658;2023-12-20T02:15:17;98620.72;;;-0.00;100.00
74798;BME280;63326;45.088;7.658;2023-12-20T02:17:45;98657.50;;;0.35;100.00
74798;BME280;63326;45.088;7.658;2023-12-20T02:20:13;98607.94;;;0.27;100.00
74798;BME280;63326;45.088;7.658;2023-12-20T02:22:39;98591.38;;;0.25;100.00
74798;BME280;63326;45.088;7.658;2023-12-20T02:25:06;98636.66;;;0.53;100.00
74798;BME280;63326;45.088;7.658;2023-12-20T02:27:34;98668.31;;;0.75;100.00
74798;BME280;63326;45.088;7.658;2023-12-20T02:30:01;98681.53;;;0.75;100.00
74798;BME280;63326;45.088;7.658;2023-12-20T02:32:27;98609.69;;;0.38;100.00
74798;BME280;63326;45.088;7.658;2023-12-20T02:34:55;98610.38;;;0.51;100.00
74798;BME280;63326;45.088;7.658;2023-12-20T02:37:23;98657.09;;;1.03;100.00
74798;BME280;63326;45.088;7.658;2023-12-20T02:39:50;98619.06;;;0.74;100.00
74798;BME280;63326;45.088;7.658;2023-12-20T02:42:16;98571.19;;;0.35;100.00
74798;BME280;63326;45.088;7.658;2023-12-20T02:44:43;98647.25;;;0.85;100.00
74798;BME280;63326;45.088;7.658;2023-12-20T02:47:10;98602.28;;;0.64;100.00
74798;BME280;63326;45.088;7.658;2023-12-20T02:49:36;98603.75;;;0.57;100.00
74798;BME280;63326;45.088;7.658;2023-12-20T02:52:04;98647.72;;;0.79;100.00
74798;BME280;63326;45.088;7.658;2023-12-20T02:54:31;98627.53;;;0.57;100.00
74798;BME280;63326;45.088;7.658;2023-12-20T02:56:57;98586.94;;;0.26;100.00
74798;BME280;63326;45.088;7.658;2023-12-20T02:59:24;98570.91;;;0.06;100.00
74798;BME280;63326;45.088;7.658;2023-12-20T03:01:50;98622.03;;;0.49;100.00
74798;BME280;63326;45.088;7.658;2023-12-20T03:04:17;98588.78;;;0.46;100.00
74798;BME280;63326;45.088;7.658;2023-12-20T03:06:44;98607.22;;;0.57;100.00
74798;BME280;63326;45.088;7.658;2023-12-20T03:09:10;98577.03;;;0.39;100.00
74798;BME280;63326;45.088;7.658;2023-12-20T03:11:37;98586.97;;;0.47;100.00
74798;BME280;63326;45.088;7.658;2023-12-20T03:14:04;98583.09;;;0.51;100.00
74798;BME280;63326;45.088;7.658;2023-12-20T03:16:31;98517.22;;;0.17;100.00
74798;BME280;63326;45.088;7.658;2023-12-20T03:19:02;98498.09;;;0.04;100.00
74798;BME280;63326;45.088;7.658;2023-12-20T03:21:29;98585.91;;;0.70;100.00
74798;BME280;63326;45.088;7.658;2023-12-20T03:23:55;98514.03;;;0.34;100.00
74798;BME280;63326;45.088;7.658;2023-12-20T03:26:22;98502.09;;;0.40;100.00
74798;BME280;63326;45.088;7.658;2023-12-20T03:28:49;98502.44;;;0.47;100.00
74798;BME280;63326;45.088;7.658;2023-12-20T03:31:16;98536.66;;;0.69;100.00
74798;BME280;63326;45.088;7.658;2023-12-20T03:33:42;98580.53;;;1.02;100.00
74798;BME280;63326;45.088;7.658;2023-12-20T03:36:09;98546.44;;;0.99;100.00
74798;BME280;63326;45.088;7.658;2023-12-20T03:38:36;98535.09;;;0.87;100.00
74798;BME280;63326;45.088;7.658;2023-12-20T03:41:03;98574.25;;;1.24;100.00
74798;BME280;63326;45.088;7.658;2023-12-20T03:43:29;98568.53;;;1.19;100.00
74798;BME280;63326;45.088;7.658;2023-12-20T03:45:56;98559.19;;;1.15;100.00
74798;BME280;63326;45.088;7.658;2023-12-20T03:48:22;98526.53;;;0.95;100.00
74798;BME280;63326;45.088;7.658;2023-12-20T03:50:49;98576.75;;;1.16;100.00
74798;BME280;63326;45.088;7.658;2023-12-20T03:53:16;98541.72;;;1.02;100.00
74798;BME280;63326;45.088;7.658;2023-12-20T03:55:42;98499.72;;;0.79;100.00
74798;BME280;63326;45.088;7.658;2023-12-20T03:58:09;98545.56;;;1.19;100.00
74798;BME280;63326;45.088;7.658;2023-12-20T04:00:36;98486.69;;;0.87;100.00
74798;BME280;63326;45.088;7.658;2023-12-20T04:03:02;98536.47;;;1.12;100.00
74798;BME280;63326;45.088;7.658;2023-12-20T04:05:29;98549.63;;;1.23;100.00
74798;BME280;63326;45.088;7.658;2023-12-20T04:07:56;98575.97;;;1.35;100.00
74798;BME280;63326;45.088;7.658;2023-12-20T04:10:23;98545.72;;;1.18;100.00
74798;BME280;63326;45.088;7.658;2023-12-20T04:12:50;98550.34;;;1.25;100.00
74798;BME280;63326;45.088;7.658;2023-12-20T04:15:16;98474.81;;;0.81;100.00
74798;BME280;63326;45.088;7.658;2023-12-20T04:17:43;98545.28;;;1.22;100.00
74798;BME280;63326;45.088;7.658;2023-12-20T04:20:10;98455.81;;;0.87;100.00
74798;BME280;63326;45.088;7.658;2023-12-20T04:22:37;98526.41;;;1.27;100.00
74798;BME280;63326;45.088;7.658;2023-12-20T04:25:03;98497.66;;;1.13;100.00
74798;BME280;63326;45.088;7.658;2023-12-20T04:27:30;98480.66;;;1.06;100.00
74798;BME280;63326;45.088;7.658;2023-12-20T04:29:57;98465.00;;;0.93;100.00
74798;BME280;63326;45.088;7.658;2023-12-20T04:32:24;98480.91;;;1.02;100.00
74798;BME280;63326;45.088;7.658;2023-12-20T04:34:51;98511.38;;;1.27;100.00
74798;BME280;63326;45.088;7.658;2023-12-20T04:37:17;98477.31;;;1.13;100.00
74798;BME280;63326;45.088;7.658;2023-12-20T04:39:44;98521.97;;;1.37;100.00
74798;BME280;63326;45.088;7.658;2023-12-20T04:42:11;98458.28;;;1.19;100.00
74798;BME280;63326;45.088;7.658;2023-12-20T04:44:37;98519.97;;;1.60;100.00
74798;BME280;63326;45.088;7.658;2023-12-20T04:47:04;98528.03;;;1.58;100.00
74798;BME280;63326;45.088;7.658;2023-12-20T04:49:31;98446.56;;;1.12;100.00
74798;BME280;63326;45.088;7.658;2023-12-20T04:51:57;98502.06;;;1.43;100.00
74798;BME280;63326;45.088;7.658;2023-12-20T04:54:24;98525.16;;;1.81;100.00
74798;BME280;63326;45.088;7.658;2023-12-20T04:56:51;98449.28;;;1.41;100.00
74798;BME280;63326;45.088;7.658;2023-12-20T04:59:17;98469.22;;;1.55;100.00
74798;BME280;63326;45.088;7.658;2023-12-20T05:01:44;98462.13;;;1.46;100.00
74798;BME280;63326;45.088;7.658;2023-12-20T05:04:11;98490.41;;;1.65;100.00
74798;BME280;63326;45.088;7.658;2023-12-20T05:06:37;98443.16;;;1.41;100.00
74798;BME280;63326;45.088;7.658;2023-12-20T05:09:04;98484.16;;;1.66;100.00
74798;BME280;63326;45.088;7.658;2023-12-20T05:11:31;98471.03;;;1.54;100.00
74798;BME280;63326;45.088;7.658;2023-12-20T05:13:58;98443.03;;;1.42;100.00
74798;BME280;63326;45.088;7.658;2023-12-20T05:16:24;98443.59;;;1.36;100.00
74798;BME280;63326;45.088;7.658;2023-12-20T05:18:51;98466.31;;;1.48;100.00
74798;BME280;63326;45.088;7.658;2023-12-20T05:21:18;98442.16;;;1.32;100.00
74798;BME280;63326;45.088;7.658;2023-12-20T05:23:45;98446.22;;;1.36;100.00
74798;BME280;63326;45.088;7.658;2023-12-20T05:26:12;98471.00;;;1.45;100.00
74798;BME280;63326;45.088;7.658;2023-12-20T05:28:39;98412.03;;;1.14;100.00
74798;BME280;63326;45.088;7.658;2023-12-20T05:31:05;98435.19;;;1.31;100.00
74798;BME280;63326;45.088;7.658;2023-12-20T05:33:33;98438.53;;;1.33;100.00
74798;BME280;63326;45.088;7.658;2023-12-20T05:36:00;98420.31;;;1.30;100.00
74798;BME280;63326;45.088;7.658;2023-12-20T05:38:26;98449.75;;;1.56;100.00
74798;BME280;63326;45.088;7.658;2023-12-20T05:40:53;98477.63;;;1.70;100.00
74798;BME280;63326;45.088;7.658;2023-12-20T05:43:20;98454.94;;;1.67;100.00
74798;BME280;63326;45.088;7.658;2023-12-20T05:45:47;98430.13;;;1.58;100.00
74798;BME280;63326;45.088;7.658;2023-12-20T05:48:13;98389.69;;;1.37;100.00
74798;BME280;63326;45.088;7.658;2023-12-20T05:50:40;98433.16;;;1.64;100.00
74798;BME280;63326;45.088;7.658;2023-12-20T05:53:07;98465.53;;;1.86;100.00
74798;BME280;63326;45.088;7.658;2023-12-20T05:55:34;98450.16;;;1.61;100.00
74798;BME280;63326;45.088;7.658;2023-12-20T05:58:00;98424.38;;;1.44;100.00
74798;BME280;63326;45.088;7.658;2023-12-20T06:00:28;98428.94;;;1.32;100.00
74798;BME280;63326;45.088;7.658;2023-12-20T06:02:54;98437.97;;;1.20;100.00
74798;BME280;63326;45.088;7.658;2023-12-20T06:05:21;98475.34;;;1.36;100.00
74798;BME280;63326;45.088;7.658;2023-12-20T06:07:48;98443.94;;;1.22;100.00
74798;BME280;63326;45.088;7.658;2023-12-20T06:10:17;98429.44;;;1.07;100.00
74798;BME280;63326;45.088;7.658;2023-12-20T06:12:44;98429.16;;;1.10;100.00
74798;BME280;63326;45.088;7.658;2023-12-20T06:15:11;98439.22;;;1.16;100.00
74798;BME280;63326;45.088;7.658;2023-12-20T06:17:38;98456.78;;;1.26;100.00
74798;BME280;63326;45.088;7.658;2023-12-20T06:20:07;98450.22;;;1.21;100.00
74798;BME280;63326;45.088;7.658;2023-12-20T06:22:35;98481.75;;;1.43;100.00
74798;BME280;63326;45.088;7.658;2023-12-20T06:25:02;98443.66;;;1.15;100.00
74798;BME280;63326;45.088;7.658;2023-12-20T06:27:29;98442.28;;;1.21;100.00
74798;BME280;63326;45.088;7.658;2023-12-20T06:29:56;98473.28;;;1.49;100.00
74798;BME280;63326;45.088;7.658;2023-12-20T06:32:22;98446.38;;;1.44;100.00
74798;BME280;63326;45.088;7.658;2023-12-20T06:34:50;98419.19;;;1.33;100.00
74798;BME280;63326;45.088;7.658;2023-12-20T06:37:16;98408.75;;;1.31;100.00
74798;BME280;63326;45.088;7.658;2023-12-20T06:39:43;98409.19;;;1.36;100.00
74798;BME280;63326;45.088;7.658;2023-12-20T06:42:10;98470.81;;;1.96;100.00
74798;BME280;63326;45.088;7.658;2023-12-20T06:44:36;98445.88;;;1.79;100.00
74798;BME280;63326;45.088;7.658;2023-12-20T06:47:03;98456.88;;;1.84;100.00
74798;BME280;63326;45.088;7.658;2023-12-20T06:49:30;98479.31;;;1.90;100.00
74798;BME280;63326;45.088;7.658;2023-12-20T06:51:57;98438.31;;;1.65;100.00
74798;BME280;63326;45.088;7.658;2023-12-20T06:54:23;98471.38;;;2.00;100.00
74798;BME280;63326;45.088;7.658;2023-12-20T06:56:50;98449.06;;;1.83;100.00
74798;BME280;63326;45.088;7.658;2023-12-20T06:59:17;98486.56;;;1.88;100.00
74798;BME280;63326;45.088;7.658;2023-12-20T07:01:47;98494.38;;;1.89;100.00
74798;BME280;63326;45.088;7.658;2023-12-20T07:04:15;98488.25;;;1.99;100.00
74798;BME280;63326;45.088;7.658;2023-12-20T07:06:43;98394.69;;;1.30;100.00
74798;BME280;63326;45.088;7.658;2023-12-20T07:09:10;98446.66;;;1.51;100.00
74798;BME280;63326;45.088;7.658;2023-12-20T07:11:37;98427.84;;;1.44;100.00
74798;BME280;63326;45.088;7.658;2023-12-20T07:14:03;98481.09;;;1.70;100.00
74798;BME280;63326;45.088;7.658;2023-12-20T07:16:30;98452.78;;;1.51;100.00
74798;BME280;63326;45.088;7.658;2023-12-20T07:18:57;98484.16;;;1.66;100.00
74798;BME280;63326;45.088;7.658;2023-12-20T07:21:23;98423.66;;;1.32;100.00
74798;BME280;63326;45.088;7.658;2023-12-20T07:23:50;98430.91;;;1.40;100.00
74798;BME280;63326;45.088;7.658;2023-12-20T07:26:17;98445.16;;;1.58;100.00
74798;BME280;63326;45.088;7.658;2023-12-20T07:28:44;98419.50;;;1.39;100.00
74798;BME280;63326;45.088;7.658;2023-12-20T07:31:10;98459.94;;;1.70;100.00
74798;BME280;63326;45.088;7.658;2023-12-20T07:33:37;98440.56;;;1.70;100.00
74798;BME280;63326;45.088;7.658;2023-12-20T07:36:06;98486.44;;;1.99;100.00
74798;BME280;63326;45.088;7.658;2023-12-20T07:38:32;98419.25;;;1.62;100.00
74798;BME280;63326;45.088;7.658;2023-12-20T07:40:59;98482.69;;;2.11;100.00
74798;BME280;63326;45.088;7.658;2023-12-20T07:43:26;98443.94;;;1.91;100.00
74798;BME280;63326;45.088;7.658;2023-12-20T07:45:52;98471.78;;;2.14;100.00
74798;BME280;63326;45.088;7.658;2023-12-20T07:48:19;98481.84;;;2.21;100.00
74798;BME280;63326;45.088;7.658;2023-12-20T07:50:45;98453.09;;;2.06;100.00
74798;BME280;63326;45.088;7.658;2023-12-20T07:53:12;98439.88;;;2.06;100.00
74798;BME280;63326;45.088;7.658;2023-12-20T07:55:39;98456.59;;;2.16;100.00
74798;BME280;63326;45.088;7.658;2023-12-20T07:58:06;98485.88;;;2.34;100.00
74798;BME280;63326;45.088;7.658;2023-12-20T08:00:32;98448.25;;;2.11;100.00
74798;BME280;63326;45.088;7.658;2023-12-20T08:02:59;98471.09;;;2.41;100.00
74798;BME280;63326;45.088;7.658;2023-12-20T08:05:26;98486.56;;;2.46;100.00
74798;BME280;63326;45.088;7.658;2023-12-20T08:07:52;98515.16;;;2.62;100.00
74798;BME280;63326;45.088;7.658;2023-12-20T08:10:20;98487.81;;;2.52;100.00
74798;BME280;63326;45.088;7.658;2023-12-20T08:12:47;98460.22;;;2.35;100.00
74798;BME280;63326;45.088;7.658;2023-12-20T08:15:14;98499.53;;;2.59;100.00
74798;BME280;63326;45.088;7.658;2023-12-20T08:17:41;98468.44;;;2.41;100.00
74798;BME280;63326;45.088;7.658;2023-12-20T08:20:08;98455.75;;;2.35;100.00
74798;BME280;63326;45.088;7.658;2023-12-20T08:22:35;98514.44;;;2.79;100.00
74798;BME280;63326;45.088;7.658;2023-12-20T08:25:01;98488.91;;;2.68;100.00
74798;BME280;63326;45.088;7.658;2023-12-20T08:27:28;98491.81;;;2.75;100.00
74798;BME280;63326;45.088;7.658;2023-12-20T08:29:54;98464.94;;;2.51;100.00
74798;BME280;63326;45.088;7.658;2023-12-20T08:32:22;98516.63;;;2.84;100.00
74798;BME280;63326;45.088;7.658;2023-12-20T08:34:51;98482.63;;;2.69;100.00
74798;BME280;63326;45.088;7.658;2023-12-20T08:37:17;98474.53;;;2.71;100.00
74798;BME280;63326;45.088;7.658;2023-12-20T08:39:44;98474.22;;;2.74;100.00
74798;BME280;63326;45.088;7.658;2023-12-20T08:42:11;98492.22;;;2.90;100.00
74798;BME280;63326;45.088;7.658;2023-12-20T08:44:38;98510.97;;;3.16;100.00
74798;BME280;63326;45.088;7.658;2023-12-20T08:47:05;98439.19;;;2.80;100.00
74798;BME280;63326;45.088;7.658;2023-12-20T08:49:31;98522.03;;;3.39;100.00
74798;BME280;63326;45.088;7.658;2023-12-20T08:51:58;98513.44;;;3.27;100.00
74798;BME280;63326;45.088;7.658;2023-12-20T08:54:25;98458.00;;;2.87;100.00
74798;BME280;63326;45.088;7.658;2023-12-20T08:56:51;98459.72;;;3.15;100.00
74798;BME280;63326;45.088;7.658;2023-12-20T08:59:18;98505.41;;;3.37;100.00
74798;BME280;63326;45.088;7.658;2023-12-20T09:01:45;98482.88;;;3.23;100.00
74798;BME280;63326;45.088;7.658;2023-12-20T09:04:13;98480.91;;;3.25;100.00
74798;BME280;63326;45.088;7.658;2023-12-20T09:06:39;98467.38;;;3.18;100.00
74798;BME280;63326;45.088;7.658;2023-12-20T09:09:06;98488.13;;;3.32;100.00
74798;BME280;63326;45.088;7.658;2023-12-20T09:11:35;98515.13;;;3.55;100.00
74798;BME280;63326;45.088;7.658;2023-12-20T09:14:02;98465.03;;;3.43;100.00
74798;BME280;63326;45.088;7.658;2023-12-20T09:16:29;98446.97;;;3.46;100.00
74798;BME280;63326;45.088;7.658;2023-12-20T09:18:57;98521.13;;;4.03;99.46
74798;BME280;63326;45.088;7.658;2023-12-20T09:21:24;98524.41;;;4.14;98.68
74798;BME280;63326;45.088;7.658;2023-12-20T09:23:52;98511.56;;;4.28;96.70
74798;BME280;63326;45.088;7.658;2023-12-20T09:26:18;98451.75;;;4.06;95.14
74798;BME280;63326;45.088;7.658;2023-12-20T09:28:45;98461.22;;;4.44;92.61
74798;BME280;63326;45.088;7.658;2023-12-20T09:31:11;98473.56;;;4.53;91.79
74798;BME280;63326;45.088;7.658;2023-12-20T09:33:38;98533.47;;;4.83;91.48
74798;BME280;63326;45.088;7.658;2023-12-20T09:36:05;98507.78;;;4.92;87.12
74798;BME280;63326;45.088;7.658;2023-12-20T09:38:32;98488.44;;;4.90;86.66
74798;BME280;63326;45.088;7.658;2023-12-20T09:40:59;98507.13;;;5.16;85.83
74798;BME280;63326;45.088;7.658;2023-12-20T09:43:27;98490.38;;;5.31;84.54
74798;BME280;63326;45.088;7.658;2023-12-20T09:46:00;98487.78;;;5.48;84.10
74798;BME280;63326;45.088;7.658;2023-12-20T09:48:30;98489.19;;;5.68;82.49
74798;BME280;63326;45.088;7.658;2023-12-20T09:50:57;98413.41;;;5.46;80.07
74798;BME280;63326;45.088;7.658;2023-12-20T09:53:25;98491.47;;;6.05;81.07
74798;BME280;63326;45.088;7.658;2023-12-20T09:55:59;98492.66;;;6.27;80.72
74798;BME280;63326;45.088;7.658;2023-12-20T09:58:28;98465.63;;;6.14;78.71
74798;BME280;63326;45.088;7.658;2023-12-20T10:00:55;98484.31;;;6.55;79.09
74798;BME280;63326;45.088;7.658;2023-12-20T10:03:25;98516.13;;;7.05;76.60
74798;BME280;63326;45.088;7.658;2023-12-20T10:05:54;98450.13;;;6.74;76.37
74798;BME280;63326;45.088;7.658;2023-12-20T10:08:24;98522.09;;;7.31;73.95
74798;BME280;63326;45.088;7.658;2023-12-20T10:10:50;98456.66;;;7.27;73.11
74798;BME280;63326;45.088;7.658;2023-12-20T10:13:18;98476.34;;;7.43;72.73
74798;BME280;63326;45.088;7.658;2023-12-20T10:15:44;98478.63;;;7.62;72.14
74798;BME280;63326;45.088;7.658;2023-12-20T10:18:12;98475.50;;;7.50;71.62
74798;BME280;63326;45.088;7.658;2023-12-20T10:20:40;98435.81;;;7.31;71.64
74798;BME280;63326;45.088;7.658;2023-12-20T10:23:08;98456.97;;;7.49;71.76
74798;BME280;63326;45.088;7.658;2023-12-20T10:25:35;98437.59;;;7.47;72.78
74798;BME280;63326;45.088;7.658;2023-12-20T10:28:15;98469.19;;;7.74;71.82
74798;BME280;63326;45.088;7.658;2023-12-20T10:30:47;98416.19;;;7.55;71.31
74798;BME280;63326;45.088;7.658;2023-12-20T10:33:23;98441.88;;;7.87;70.44
74798;BME280;63326;45.088;7.658;2023-12-20T10:35:50;98406.13;;;7.88;69.67
74798;BME280;63326;45.088;7.658;2023-12-20T10:38:17;98391.91;;;7.87;68.92
74798;BME280;63326;45.088;7.658;2023-12-20T10:40:45;98431.72;;;8.28;66.56
74798;BME280;63326;45.088;7.658;2023-12-20T10:43:12;98424.41;;;8.45;65.51
74798;BME280;63326;45.088;7.658;2023-12-20T10:45:41;98391.75;;;8.49;64.58
74798;BME280;63326;45.088;7.658;2023-12-20T10:48:10;98430.78;;;8.96;62.67
74798;BME280;63326;45.088;7.658;2023-12-20T10:50:41;98380.34;;;8.85;60.98
74798;BME280;63326;45.088;7.658;2023-12-20T10:53:07;98385.25;;;8.96;61.71
74798;BME280;63326;45.088;7.658;2023-12-20T10:55:34;98420.41;;;9.52;61.05
74798;BME280;63326;45.088;7.658;2023-12-20T10:58:04;98400.22;;;9.71;59.95
74798;BME280;63326;45.088;7.658;2023-12-20T11:00:41;98410.50;;;10.04;57.10
74798;BME280;63326;45.088;7.658;2023-12-20T11:03:11;98471.31;;;10.39;56.71
74798;BME280;63326;45.088;7.658;2023-12-20T11:08:28;98441.22;;;10.22;57.07
74798;BME280;63326;45.088;7.658;2023-12-20T11:11:32;98435.47;;;10.04;57.82
74798;BME280;63326;45.088;7.658;2023-12-20T11:14:07;98420.31;;;9.96;58.17
74798;BME280;63326;45.088;7.658;2023-12-20T11:16:37;98424.06;;;10.02;58.77
74798;BME280;63326;45.088;7.658;2023-12-20T11:19:17;98372.91;;;9.82;56.62
74798;BME280;63326;45.088;7.658;2023-12-20T11:21:45;98349.31;;;9.05;57.46
74798;BME280;63326;45.088;7.658;2023-12-20T11:24:13;98349.22;;;9.43;57.74
74798;BME280;63326;45.088;7.658;2023-12-20T11:26:46;98389.47;;;9.86;57.23
74798;BME280;63326;45.088;7.658;2023-12-20T11:29:33;98393.94;;;10.00;56.84
74798;BME280;63326;45.088;7.658;2023-12-20T11:32:03;98377.53;;;9.88;54.88
74798;BME280;63326;45.088;7.658;2023-12-20T11:34:51;98356.47;;;9.49;56.64
74798;BME280;63326;45.088;7.658;2023-12-20T11:37:18;98375.75;;;9.59;56.07
74798;BME280;63326;45.088;7.658;2023-12-20T11:39:54;98363.44;;;9.44;56.24
74798;BME280;63326;45.088;7.658;2023-12-20T11:42:21;98313.88;;;9.03;56.56
74798;BME280;63326;45.088;7.658;2023-12-20T11:44:48;98313.50;;;8.92;56.94
74798;BME280;63326;45.088;7.658;2023-12-20T11:47:14;98328.84;;;8.83;58.02
74798;BME280;63326;45.088;7.658;2023-12-20T11:49:42;98336.22;;;8.81;58.32
74798;BME280;63326;45.088;7.658;2023-12-20T11:52:09;98293.66;;;8.57;58.43
74798;BME280;63326;45.088;7.658;2023-12-20T11:54:35;98275.84;;;8.49;57.57
74798;BME280;63326;45.088;7.658;2023-12-20T11:57:02;98350.25;;;8.83;58.40
74798;BME280;63326;45.088;7.658;2023-12-20T11:59:28;98292.66;;;8.58;58.33
74798;BME280;63326;45.088;7.658;2023-12-20T12:01:55;98306.50;;;8.76;58.71
74798;BME280;63326;45.088;7.658;2023-12-20T12:04:27;98293.75;;;8.93;59.37
74798;BME280;63326;45.088;7.658;2023-12-20T12:06:55;98341.81;;;9.45;59.03
74798;BME280;63326;45.088;7.658;2023-12-20T12:09:21;98275.94;;;9.21;58.68
74798;BME280;63326;45.088;7.658;2023-12-20T12:11:48;98293.59;;;9.52;57.97
74798;BME280;63326;45.088;7.658;2023-12-20T12:14:15;98304.91;;;9.68;57.57
74798;BME280;63326;45.088;7.658;2023-12-20T12:16:42;98325.16;;;9.92;56.94
74798;BME280;63326;45.088;7.658;2023-12-20T12:19:19;98321.06;;;9.96;56.24
74798;BME280;63326;45.088;7.658;2023-12-20T12:21:46;98260.56;;;9.66;55.04
74798;BME280;63326;45.088;7.658;2023-12-20T12:24:13;98281.16;;;9.87;53.50
74798;BME280;63326;45.088;7.658;2023-12-20T12:26:39;98285.13;;;9.91;54.13
74798;BME280;63326;45.088;7.658;2023-12-20T12:29:09;98312.84;;;9.98;54.76
74798;BME280;63326;45.088;7.658;2023-12-20T12:31:36;98306.00;;;9.95;54.27
74798;BME280;63326;45.088;7.658;2023-12-20T12:34:03;98254.69;;;9.77;52.79
74798;BME280;63326;45.088;7.658;2023-12-20T12:36:30;98248.28;;;9.78;50.18
74798;BME280;63326;45.088;7.658;2023-12-20T12:38:57;98283.97;;;10.00;50.03
74798;BME280;63326;45.088;7.658;2023-12-20T12:41:24;98280.25;;;10.01;49.47
74798;BME280;63326;45.088;7.658;2023-12-20T12:43:51;98286.25;;;9.82;50.10
74798;BME280;63326;45.088;7.658;2023-12-20T12:46:17;98226.94;;;9.42;50.65
74798;BME280;63326;45.088;7.658;2023-12-20T12:48:44;98262.16;;;9.60;51.64
74798;BME280;63326;45.088;7.658;2023-12-20T12:51:13;98250.78;;;9.58;51.67
74798;BME280;63326;45.088;7.658;2023-12-20T12:53:40;98253.88;;;9.55;52.38
74798;BME280;63326;45.088;7.658;2023-12-20T12:56:07;98270.19;;;9.60;52.64
74798;BME280;63326;45.088;7.658;2023-12-20T12:58:34;98210.34;;;9.32;52.66
74798;BME280;63326;45.088;7.658;2023-12-20T13:01:01;98254.22;;;9.52;52.63
74798;BME280;63326;45.088;7.658;2023-12-20T13:03:28;98252.53;;;9.45;52.47
74798;BME280;63326;45.088;7.658;2023-12-20T13:05:54;98255.75;;;9.40;52.83